sensor_id;sensor_type;location;lat;lon;timestamp;pressure;altitude;pressure_sealevel;temperature;humidity
13314;BME280;6725;48.112;11.604;2023-05-07T00:02:20;94003.69;;;13.42;100.00
13314;BME280;6725;48.112;11.604;2023-05-07T00:04:46;94014.03;;;13.38;100.00
13314;BME280;6725;48.112;11.604;2023-05-07T00:07:11;93994.53;;;13.36;100.00
13314;BME280;6725;48.112;11.604;2023-05-07T00:09:36;93993.78;;;13.36;100.00
13314;BME280;6725;48.112;11.604;2023-05-07T00:12:02;93951.41;;;13.37;100.00
13314;BME280;6725;48.112;11.604;2023-05-07T00:14:27;93959.50;;;13.31;100.00
13314;BME280;6725;48.112;11.604;2023-05-07T00:16:53;93957.66;;;13.28;100.00
13314;BME280;6725;48.112;11.604;2023-05-07T00:19:18;93967.09;;;13.27;100.00
13314;BME280;6725;48.112;11.604;2023-05-07T00:21:43;93970.28;;;13.25;100.00
13314;BME280;6725;48.112;11.604;2023-05-07T00:24:09;93973.03;;;13.25;100.00
13314;BME280;6725;48.112;11.604;2023-05-07T00:26:34;93971.97;;;13.23;100.00
13314;BME280;6725;48.112;11.604;2023-05-07T00:28:59;93974.09;;;13.19;100.00
13314;BME280;6725;48.112;11.604;2023-05-07T00:31:25;93976.53;;;13.17;100.00
13314;BME280;6725;48.112;11.604;2023-05-07T00:33:50;93973.50;;;13.15;100.00
13314;BME280;6725;48.112;11.604;2023-05-07T00:36:15;93971.19;;;13.13;100.00
13314;BME280;6725;48.112;11.604;2023-05-07T00:38:41;93967.38;;;13.11;100.00
13314;BME280;6725;48.112;11.604;2023-05-07T00:41:06;93968.28;;;13.08;100.00
13314;BME280;6725;48.112;11.604;2023-05-07T00:43:31;93973.78;;;13.08;100.00
13314;BME280;6725;48.112;11.604;2023-05-07T00:45:57;93959.91;;;13.02;100.00
13314;BME280;6725;48.112;11.604;2023-05-07T00:48:22;93971.63;;;13.03;100.00
13314;BME280;6725;48.112;11.604;2023-05-07T00:50:49;93966.13;;;13.03;100.00
13314;BME280;6725;48.112;11.604;2023-05-07T00:53:14;93960.66;;;13.03;100.00
13314;BME280;6725;48.112;11.604;2023-05-07T00:55:40;93963.09;;;13.01;100.00
13314;BME280;6725;48.112;11.604;2023-05-07T00:58:06;93959.28;;;12.98;100.00
13314;BME280;6725;48.112;11.604;2023-05-07T01:00:31;93960.91;;;12.96;100.00
13314;BME280;6725;48.112;11.604;2023-05-07T01:02:57;93961.84;;;12.93;100.00
13314;BME280;6725;48.112;11.604;2023-05-07T01:05:24;93957.25;;;12.90;100.00
13314;BME280;6725;48.112;11.604;2023-05-07T01:07:52;93955.72;;;12.89;100.00
13314;BME280;6725;48.112;11.604;2023-05-07T01:10:18;93944.63;;;12.92;100.00
13314;BME280;6725;48.112;11.604;2023-05-07T01:12:45;93945.41;;;12.93;100.00
13314;BME280;6725;48.112;11.604;2023-05-07T01:15:12;93930.47;;;12.94;100.00
13314;BME280;6725;48.112;11.604;2023-05-07T01:17:39;93940.81;;;12.90;100.00
13314;BME280;6725;48.112;11.604;2023-05-07T01:20:06;93932.28;;;12.88;100.00
13314;BME280;6725;48.112;11.604;2023-05-07T01:22:36;93915.84;;;12.88;100.00
13314;BME280;6725;48.112;11.604;2023-05-07T01:25:03;93915.53;;;12.86;100.00
13314;BME280;6725;48.112;11.604;2023-05-07T01:27:28;93910.06;;;12.86;100.00
13314;BME280;6725;48.112;11.604;2023-05-07T01:29:54;93897.88;;;12.87;100.00
13314;BME280;6725;48.112;11.604;2023-05-07T01:32:24;93905.78;;;12.85;100.00
13314;BME280;6725;48.112;11.604;2023-05-07T01:34:53;93892.41;;;12.87;100.00
13314;BME280;6725;48.112;11.604;2023-05-07T01:37:20;93887.22;;;12.89;100.00
13314;BME280;6725;48.112;11.604;2023-05-07T01:39:47;93888.88;;;12.86;100.00
13314;BME280;6725;48.112;11.604;2023-05-07T01:42:13;93888.16;;;12.86;100.00
13314;BME280;6725;48.112;11.604;2023-05-07T01:44:38;93884.19;;;12.87;100.00
13314;BME280;6725;48.112;11.604;2023-05-07T01:47:04;93884.19;;;12.87;100.00
13314;BME280;6725;48.112;11.604;2023-05-07T01:49:30;93893.31;;;12.84;100.00
13314;BME280;6725;48.112;11.604;2023-05-07T01:51:55;93901.97;;;12.82;100.00
13314;BME280;6725;48.112;11.604;2023-05-07T01:54:25;93903.03;;;12.76;100.00
13314;BME280;6725;48.112;11.604;2023-05-07T01:56:53;93901.53;;;12.75;100.00
13314;BME280;6725;48.112;11.604;2023-05-07T01:59:18;93913.66;;;12.74;100.00
13314;BME280;6725;48.112;11.604;2023-05-07T02:01:43;93892.97;;;12.73;100.00
13314;BME280;6725;48.112;11.604;2023-05-07T02:04:09;93905.16;;;12.72;100.00
13314;BME280;6725;48.112;11.604;2023-05-07T02:06:34;93904.84;;;12.70;100.00
13314;BME280;6725;48.112;11.604;2023-05-07T02:09:00;93897.84;;;12.69;100.00
13314;BME280;6725;48.112;11.604;2023-05-07T02:11:25;93901.81;;;12.68;100.00
13314;BME280;6725;48.112;11.604;2023-05-07T02:13:50;93884.75;;;12.64;100.00
13314;BME280;6725;48.112;11.604;2023-05-07T02:16:16;93893.41;;;12.62;100.00
13314;BME280;6725;48.112;11.604;2023-05-07T02:18:41;93892.03;;;12.58;100.00
13314;BME280;6725;48.112;11.604;2023-05-07T02:21:07;93904.78;;;12.52;100.00
13314;BME280;6725;48.112;11.604;2023-05-07T02:23:32;93891.09;;;12.52;100.00
13314;BME280;6725;48.112;11.604;2023-05-07T02:25:58;93894.28;;;12.50;100.00
13314;BME280;6725;48.112;11.604;2023-05-07T02:28:23;93901.75;;;12.50;100.00
13314;BME280;6725;48.112;11.604;2023-05-07T02:30:48;93903.88;;;12.46;100.00
13314;BME280;6725;48.112;11.604;2023-05-07T02:33:14;93905.06;;;12.45;100.00
13314;BME280;6725;48.112;11.604;2023-05-07T02:35:39;93910.25;;;12.43;100.00
13314;BME280;6725;48.112;11.604;2023-05-07T02:38:05;93904.75;;;12.43;100.00
13314;BME280;6725;48.112;11.604;2023-05-07T02:40:30;93906.88;;;12.39;100.00
13314;BME280;6725;48.112;11.604;2023-05-07T02:42:58;93914.91;;;12.33;100.00
13314;BME280;6725;48.112;11.604;2023-05-07T02:45:24;93903.19;;;12.33;100.00
13314;BME280;6725;48.112;11.604;2023-05-07T02:47:49;93912.91;;;12.25;100.00
13314;BME280;6725;48.112;11.604;2023-05-07T02:50:15;93918.50;;;12.21;100.00
13314;BME280;6725;48.112;11.604;2023-05-07T02:52:40;93908.59;;;12.15;100.00
13314;BME280;6725;48.112;11.604;2023-05-07T02:55:06;93914.06;;;12.15;100.00
13314;BME280;6725;48.112;11.604;2023-05-07T02:57:31;93923.34;;;12.17;100.00
13314;BME280;6725;48.112;11.604;2023-05-07T02:59:57;93929.25;;;12.16;100.00
13314;BME280;6725;48.112;11.604;2023-05-07T03:02:23;93926.81;;;12.09;100.00
13314;BME280;6725;48.112;11.604;2023-05-07T03:04:48;93945.91;;;12.00;100.00
13314;BME280;6725;48.112;11.604;2023-05-07T03:07:13;93960.81;;;11.99;100.00
13314;BME280;6725;48.112;11.604;2023-05-07T03:09:39;94223.47;;;11.99;100.00
13314;BME280;6725;48.112;11.604;2023-05-07T03:12:05;94228.94;;;11.99;100.00
13314;BME280;6725;48.112;11.604;2023-05-07T03:14:30;94223.34;;;12.02;100.00
13314;BME280;6725;48.112;11.604;2023-05-07T03:16:55;94220.94;;;12.04;100.00
13314;BME280;6725;48.112;11.604;2023-05-07T03:19:21;94221.69;;;12.05;100.00
13314;BME280;6725;48.112;11.604;2023-05-07T03:21:46;94223.22;;;12.06;100.00
13314;BME280;6725;48.112;11.604;2023-05-07T03:24:12;94228.38;;;12.04;100.00
13314;BME280;6725;48.112;11.604;2023-05-07T03:26:37;94226.41;;;12.04;100.00
13314;BME280;6725;48.112;11.604;2023-05-07T03:29:03;94229.59;;;12.03;100.00
13314;BME280;6725;48.112;11.604;2023-05-07T03:31:28;94228.94;;;11.99;100.00
13314;BME280;6725;48.112;11.604;2023-05-07T03:33:55;94221.94;;;11.98;100.00
13314;BME280;6725;48.112;11.604;2023-05-07T03:36:21;94244.38;;;11.93;100.00
13314;BME280;6725;48.112;11.604;2023-05-07T03:38:48;94251.91;;;11.89;100.00
13314;BME280;6725;48.112;11.604;2023-05-07T03:41:13;94253.13;;;11.88;100.00
13314;BME280;6725;48.112;11.604;2023-05-07T03:43:39;94251.28;;;11.85;100.00
13314;BME280;6725;48.112;11.604;2023-05-07T03:46:04;94262.22;;;11.85;100.00
13314;BME280;6725;48.112;11.604;2023-05-07T03:48:30;94260.56;;;11.87;100.00
13314;BME280;6725;48.112;11.604;2023-05-07T03:50:56;94263.63;;;11.89;100.00
13314;BME280;6725;48.112;11.604;2023-05-07T03:53:22;94274.38;;;11.84;100.00
13314;BME280;6725;48.112;11.604;2023-05-07T03:55:47;94266.16;;;11.84;100.00
13314;BME280;6725;48.112;11.604;2023-05-07T03:58:13;94259.91;;;11.83;100.00
13314;BME280;6725;48.112;11.604;2023-05-07T04:00:38;94262.22;;;11.85;100.00
13314;BME280;6725;48.112;11.604;2023-05-07T04:03:06;94268.56;;;11.82;100.00
13314;BME280;6725;48.112;11.604;2023-05-07T04:05:31;94273.16;;;11.85;100.00
13314;BME280;6725;48.112;11.604;2023-05-07T04:08:00;94274.03;;;11.82;100.00
13314;BME280;6725;48.112;11.604;2023-05-07T04:10:25;94284.53;;;11.83;100.00
13314;BME280;6725;48.112;11.604;2023-05-07T04:12:51;94281.69;;;11.87;100.00
13314;BME280;6725;48.112;11.604;2023-05-07T04:15:16;94272.16;;;11.91;100.00
13314;BME280;6725;48.112;11.604;2023-05-07T04:17:42;94273.59;;;11.96;100.00
13314;BME280;6725;48.112;11.604;2023-05-07T04:20:14;94281.22;;;12.01;100.00
13314;BME280;6725;48.112;11.604;2023-05-07T04:22:40;94279.47;;;12.07;100.00
13314;BME280;6725;48.112;11.604;2023-05-07T04:25:06;94278.16;;;12.11;100.00
13314;BME280;6725;48.112;11.604;2023-05-07T04:27:31;94283.28;;;12.22;100.00
13314;BME280;6725;48.112;11.604;2023-05-07T04:29:57;94289.63;;;12.31;100.00
13314;BME280;6725;48.112;11.604;2023-05-07T04:32:23;94283.13;;;12.38;100.00
13314;BME280;6725;48.112;11.604;2023-05-07T04:34:50;94272.72;;;12.45;100.00
13314;BME280;6725;48.112;11.604;2023-05-07T04:37:15;94245.13;;;12.52;100.00
13314;BME280;6725;48.112;11.604;2023-05-07T04:39:41;94204.88;;;12.62;100.00
13314;BME280;6725;48.112;11.604;2023-05-07T04:42:06;94172.38;;;12.73;100.00
13314;BME280;6725;48.112;11.604;2023-05-07T04:44:34;94134.53;;;12.80;100.00
13314;BME280;6725;48.112;11.604;2023-05-07T04:46:59;94135.03;;;12.88;100.00
13314;BME280;6725;48.112;11.604;2023-05-07T04:49:25;94137.06;;;12.96;100.00
13314;BME280;6725;48.112;11.604;2023-05-07T04:51:50;94140.34;;;13.04;100.00
13314;BME280;6725;48.112;11.604;2023-05-07T04:54:16;94148.41;;;13.07;100.00
13314;BME280;6725;48.112;11.604;2023-05-07T04:56:41;94162.63;;;13.15;100.00
13314;BME280;6725;48.112;11.604;2023-05-07T04:59:06;94164.19;;;13.25;100.00
13314;BME280;6725;48.112;11.604;2023-05-07T05:01:32;94175.22;;;13.34;100.00
13314;BME280;6725;48.112;11.604;2023-05-07T05:03:57;94195.66;;;13.42;100.00
13314;BME280;6725;48.112;11.604;2023-05-07T05:06:22;94205.13;;;13.50;100.00
13314;BME280;6725;48.112;11.604;2023-05-07T05:08:48;94228.03;;;13.56;100.00
13314;BME280;6725;48.112;11.604;2023-05-07T05:11:13;94260.03;;;13.59;100.00
13314;BME280;6725;48.112;11.604;2023-05-07T05:13:40;94282.97;;;13.74;100.00
13314;BME280;6725;48.112;11.604;2023-05-07T05:16:05;94307.72;;;13.83;100.00
13314;BME280;6725;48.112;11.604;2023-05-07T05:18:31;94351.72;;;14.01;100.00
13314;BME280;6725;48.112;11.604;2023-05-07T05:20:56;94390.56;;;14.52;100.00
13314;BME280;6725;48.112;11.604;2023-05-07T05:23:21;94537.41;;;15.12;100.00
13314;BME280;6725;48.112;11.604;2023-05-07T05:25:47;94662.31;;;16.02;100.00
13314;BME280;6725;48.112;11.604;2023-05-07T05:28:12;94878.44;;;16.81;100.00
13314;BME280;6725;48.112;11.604;2023-05-07T05:30:38;95037.22;;;17.52;100.00
13314;BME280;6725;48.112;11.604;2023-05-07T05:33:04;95134.19;;;18.11;100.00
13314;BME280;6725;48.112;11.604;2023-05-07T05:35:29;95160.84;;;18.45;100.00
13314;BME280;6725;48.112;11.604;2023-05-07T05:37:55;95195.59;;;18.55;100.00
13314;BME280;6725;48.112;11.604;2023-05-07T05:40:20;95206.81;;;19.05;100.00
13314;BME280;6725;48.112;11.604;2023-05-07T05:42:46;95218.63;;;19.51;100.00
13314;BME280;6725;48.112;11.604;2023-05-07T05:45:11;95230.88;;;19.86;100.00
13314;BME280;6725;48.112;11.604;2023-05-07T05:47:37;95239.25;;;20.10;100.00
13314;BME280;6725;48.112;11.604;2023-05-07T05:50:03;95247.16;;;20.91;100.00
13314;BME280;6725;48.112;11.604;2023-05-07T05:52:28;95247.97;;;21.29;100.00
13314;BME280;6725;48.112;11.604;2023-05-07T05:54:54;95247.97;;;21.44;100.00
13314;BME280;6725;48.112;11.604;2023-05-07T05:57:19;95255.47;;;21.52;100.00
13314;BME280;6725;48.112;11.604;2023-05-07T05:59:45;95251.16;;;21.66;100.00
13314;BME280;6725;48.112;11.604;2023-05-07T06:02:11;95258.44;;;21.63;100.00
13314;BME280;6725;48.112;11.604;2023-05-07T06:04:37;95260.72;;;22.37;100.00
13314;BME280;6725;48.112;11.604;2023-05-07T06:07:02;95261.09;;;22.60;100.00
13314;BME280;6725;48.112;11.604;2023-05-07T06:09:27;95270.31;;;22.66;100.00
13314;BME280;6725;48.112;11.604;2023-05-07T06:11:55;95265.09;;;23.28;100.00
13314;BME280;6725;48.112;11.604;2023-05-07T06:14:21;95273.03;;;23.35;100.00
13314;BME280;6725;48.112;11.604;2023-05-07T06:16:46;95272.19;;;23.49;100.00
13314;BME280;6725;48.112;11.604;2023-05-07T06:19:11;95276.50;;;23.50;100.00
13314;BME280;6725;48.112;11.604;2023-05-07T06:21:37;95270.72;;;23.79;100.00
13314;BME280;6725;48.112;11.604;2023-05-07T06:24:02;95271.59;;;24.16;100.00
13314;BME280;6725;48.112;11.604;2023-05-07T06:26:27;95266.13;;;24.27;100.00
13314;BME280;6725;48.112;11.604;2023-05-07T06:28:53;95269.16;;;24.60;100.00
13314;BME280;6725;48.112;11.604;2023-05-07T06:31:19;95273.75;;;24.32;100.00
13314;BME280;6725;48.112;11.604;2023-05-07T06:33:48;95277.66;;;23.03;100.00
13314;BME280;6725;48.112;11.604;2023-05-07T06:36:13;95274.00;;;23.52;100.00
13314;BME280;6725;48.112;11.604;2023-05-07T06:38:39;95285.75;;;24.07;100.00
13314;BME280;6725;48.112;11.604;2023-05-07T06:41:06;95277.81;;;24.31;100.00
13314;BME280;6725;48.112;11.604;2023-05-07T06:43:31;95279.44;;;24.43;100.00
13314;BME280;6725;48.112;11.604;2023-05-07T06:45:57;95282.31;;;24.85;100.00
13314;BME280;6725;48.112;11.604;2023-05-07T06:48:22;95292.28;;;25.39;100.00
13314;BME280;6725;48.112;11.604;2023-05-07T06:50:48;95289.88;;;25.21;100.00
13314;BME280;6725;48.112;11.604;2023-05-07T06:53:13;95284.13;;;25.41;100.00
13314;BME280;6725;48.112;11.604;2023-05-07T06:55:38;95279.03;;;25.34;100.00
13314;BME280;6725;48.112;11.604;2023-05-07T06:58:04;95284.75;;;25.78;100.00
13314;BME280;6725;48.112;11.604;2023-05-07T07:00:29;95282.06;;;26.06;100.00
13314;BME280;6725;48.112;11.604;2023-05-07T07:02:56;95284.88;;;26.44;100.00
13314;BME280;6725;48.112;11.604;2023-05-07T07:05:21;95279.78;;;26.15;100.00
13314;BME280;6725;48.112;11.604;2023-05-07T07:07:47;95284.13;;;26.82;100.00
13314;BME280;6725;48.112;11.604;2023-05-07T07:10:18;95280.81;;;26.56;100.00
13314;BME280;6725;48.112;11.604;2023-05-07T07:12:44;95288.72;;;26.80;100.00
13314;BME280;6725;48.112;11.604;2023-05-07T07:15:10;95288.22;;;26.59;100.00
13314;BME280;6725;48.112;11.604;2023-05-07T07:17:35;95284.06;;;27.15;100.00
13314;BME280;6725;48.112;11.604;2023-05-07T07:20:01;95280.69;;;28.37;100.00
13314;BME280;6725;48.112;11.604;2023-05-07T07:22:26;95283.44;;;28.48;96.60
13314;BME280;6725;48.112;11.604;2023-05-07T07:24:51;95288.03;;;28.04;99.63
13314;BME280;6725;48.112;11.604;2023-05-07T07:27:16;95280.09;;;27.62;100.00
13314;BME280;6725;48.112;11.604;2023-05-07T07:29:42;95283.03;;;27.86;100.00
13314;BME280;6725;48.112;11.604;2023-05-07T07:32:07;95283.94;;;27.54;100.00
13314;BME280;6725;48.112;11.604;2023-05-07T07:34:33;95299.88;;;27.86;100.00
13314;BME280;6725;48.112;11.604;2023-05-07T07:36:58;95292.78;;;26.35;100.00
13314;BME280;6725;48.112;11.604;2023-05-07T07:39:23;95288.59;;;25.75;100.00
13314;BME280;6725;48.112;11.604;2023-05-07T07:41:49;95289.50;;;26.69;100.00
13314;BME280;6725;48.112;11.604;2023-05-07T07:44:14;95296.00;;;25.89;100.00
13314;BME280;6725;48.112;11.604;2023-05-07T07:46:39;95297.09;;;26.08;100.00
13314;BME280;6725;48.112;11.604;2023-05-07T07:49:05;95295.09;;;26.80;100.00
13314;BME280;6725;48.112;11.604;2023-05-07T07:51:30;95291.75;;;26.93;100.00
13314;BME280;6725;48.112;11.604;2023-05-07T07:53:55;95290.97;;;26.04;100.00
13314;BME280;6725;48.112;11.604;2023-05-07T07:56:23;95303.19;;;26.01;100.00
13314;BME280;6725;48.112;11.604;2023-05-07T07:58:48;95296.66;;;25.51;100.00
13314;BME280;6725;48.112;11.604;2023-05-07T08:01:13;95291.53;;;26.30;100.00
13314;BME280;6725;48.112;11.604;2023-05-07T08:03:39;95295.47;;;27.39;100.00
13314;BME280;6725;48.112;11.604;2023-05-07T08:06:04;95298.13;;;27.72;97.20
13314;BME280;6725;48.112;11.604;2023-05-07T08:08:30;95291.97;;;27.22;100.00
13314;BME280;6725;48.112;11.604;2023-05-07T08:10:55;95290.63;;;27.40;100.00
13314;BME280;6725;48.112;11.604;2023-05-07T08:13:20;95295.88;;;28.58;95.79
13314;BME280;6725;48.112;11.604;2023-05-07T08:15:46;95289.34;;;29.27;88.56
13314;BME280;6725;48.112;11.604;2023-05-07T08:18:11;95293.56;;;28.86;88.59
13314;BME280;6725;48.112;11.604;2023-05-07T08:20:36;95294.06;;;30.23;80.71
13314;BME280;6725;48.112;11.604;2023-05-07T08:23:05;95299.88;;;29.21;80.06
13314;BME280;6725;48.112;11.604;2023-05-07T08:25:36;95295.00;;;27.24;89.69
13314;BME280;6725;48.112;11.604;2023-05-07T08:28:02;95308.59;;;27.83;84.54
13314;BME280;6725;48.112;11.604;2023-05-07T08:30:28;95300.78;;;28.05;86.77
13314;BME280;6725;48.112;11.604;2023-05-07T08:32:53;95297.91;;;28.16;87.60
13314;BME280;6725;48.112;11.604;2023-05-07T08:35:19;95305.00;;;27.88;93.42
13314;BME280;6725;48.112;11.604;2023-05-07T08:37:44;95305.44;;;27.97;88.28
13314;BME280;6725;48.112;11.604;2023-05-07T08:40:10;95300.56;;;28.38;86.04
13314;BME280;6725;48.112;11.604;2023-05-07T08:42:36;95304.47;;;27.89;89.83
13314;BME280;6725;48.112;11.604;2023-05-07T08:45:03;95309.59;;;26.79;99.25
13314;BME280;6725;48.112;11.604;2023-05-07T08:47:40;95303.50;;;26.80;93.30
13314;BME280;6725;48.112;11.604;2023-05-07T08:50:07;95300.34;;;27.33;88.61
13314;BME280;6725;48.112;11.604;2023-05-07T08:52:33;95305.38;;;28.08;87.75
13314;BME280;6725;48.112;11.604;2023-05-07T08:54:59;95305.78;;;28.23;89.33
13314;BME280;6725;48.112;11.604;2023-05-07T08:57:25;95306.75;;;26.18;98.16
13314;BME280;6725;48.112;11.604;2023-05-07T08:59:50;95309.88;;;26.64;100.00
13314;BME280;6725;48.112;11.604;2023-05-07T09:02:16;95314.69;;;26.36;93.59
13314;BME280;6725;48.112;11.604;2023-05-07T09:04:43;95316.69;;;27.35;89.87
13314;BME280;6725;48.112;11.604;2023-05-07T09:07:08;95306.91;;;28.09;87.82
13314;BME280;6725;48.112;11.604;2023-05-07T09:09:34;95315.69;;;29.00;73.35
13314;BME280;6725;48.112;11.604;2023-05-07T09:11:59;95318.34;;;27.65;83.29
13314;BME280;6725;48.112;11.604;2023-05-07T09:14:25;95315.56;;;27.54;82.88
13314;BME280;6725;48.112;11.604;2023-05-07T09:16:53;95316.84;;;27.53;82.48
13314;BME280;6725;48.112;11.604;2023-05-07T09:19:26;95314.91;;;27.15;84.57
13314;BME280;6725;48.112;11.604;2023-05-07T09:21:59;95311.22;;;27.59;80.48
13314;BME280;6725;48.112;11.604;2023-05-07T09:24:25;95301.34;;;27.98;75.45
13314;BME280;6725;48.112;11.604;2023-05-07T09:26:50;95316.19;;;27.25;78.99
13314;BME280;6725;48.112;11.604;2023-05-07T09:29:16;95298.31;;;27.17;76.02
13314;BME280;6725;48.112;11.604;2023-05-07T09:31:42;95298.91;;;26.61;78.97
13314;BME280;6725;48.112;11.604;2023-05-07T09:34:07;95301.06;;;25.85;86.60
13314;BME280;6725;48.112;11.604;2023-05-07T09:36:33;95294.03;;;26.17;88.84
13314;BME280;6725;48.112;11.604;2023-05-07T09:39:01;95297.66;;;26.78;81.62
13314;BME280;6725;48.112;11.604;2023-05-07T09:41:29;95299.66;;;26.28;77.11
13314;BME280;6725;48.112;11.604;2023-05-07T09:43:56;95300.69;;;26.47;74.04
13314;BME280;6725;48.112;11.604;2023-05-07T09:46:25;95298.38;;;26.51;73.83
13314;BME280;6725;48.112;11.604;2023-05-07T09:48:52;95302.47;;;26.83;79.05
13314;BME280;6725;48.112;11.604;2023-05-07T09:54:02;95292.53;;;26.27;85.75
13314;BME280;6725;48.112;11.604;2023-05-07T09:56:29;95292.78;;;26.46;81.64
13314;BME280;6725;48.112;11.604;2023-05-07T09:58:57;95298.63;;;26.20;80.35
13314;BME280;6725;48.112;11.604;2023-05-07T10:01:25;95299.66;;;26.39;79.14
13314;BME280;6725;48.112;11.604;2023-05-07T10:03:51;95290.75;;;26.52;84.71
13314;BME280;6725;48.112;11.604;2023-05-07T10:06:17;95286.16;;;26.87;78.98
13314;BME280;6725;48.112;11.604;2023-05-07T10:08:44;95292.66;;;25.74;82.43
13314;BME280;6725;48.112;11.604;2023-05-07T10:11:11;95297.13;;;26.19;77.15
13314;BME280;6725;48.112;11.604;2023-05-07T10:13:37;95295.59;;;26.84;74.43
13314;BME280;6725;48.112;11.604;2023-05-07T10:16:04;95303.47;;;26.42;71.60
13314;BME280;6725;48.112;11.604;2023-05-07T10:18:33;95303.94;;;26.07;74.90
13314;BME280;6725;48.112;11.604;2023-05-07T10:21:11;95297.13;;;26.41;72.57
13314;BME280;6725;48.112;11.604;2023-05-07T10:23:36;95290.91;;;25.93;80.44
13314;BME280;6725;48.112;11.604;2023-05-07T10:26:05;95297.28;;;25.94;76.64
13314;BME280;6725;48.112;11.604;2023-05-07T10:28:36;95303.94;;;26.07;75.32
13314;BME280;6725;48.112;11.604;2023-05-07T10:33:48;95294.56;;;26.87;70.14
13314;BME280;6725;48.112;11.604;2023-05-07T10:36:16;95292.44;;;25.89;76.40
13314;BME280;6725;48.112;11.604;2023-05-07T10:38:42;95305.50;;;25.44;80.03
13314;BME280;6725;48.112;11.604;2023-05-07T10:41:08;95303.09;;;25.74;79.21
13314;BME280;6725;48.112;11.604;2023-05-07T10:43:44;95293.38;;;25.58;80.24
13314;BME280;6725;48.112;11.604;2023-05-07T10:46:18;95294.31;;;27.02;70.88
13314;BME280;6725;48.112;11.604;2023-05-07T10:51:34;95292.16;;;25.87;70.47
13314;BME280;6725;48.112;11.604;2023-05-07T10:56:35;95292.78;;;26.73;74.15
13314;BME280;6725;48.112;11.604;2023-05-07T11:04:24;95294.53;;;24.93;84.53
13314;BME280;6725;48.112;11.604;2023-05-07T11:12:16;95300.06;;;25.83;84.50
13314;BME280;6725;48.112;11.604;2023-05-07T11:17:08;95287.84;;;25.27;92.58
13314;BME280;6725;48.112;11.604;2023-05-07T11:19:54;95273.03;;;25.63;91.68
13314;BME280;6725;48.112;11.604;2023-05-07T11:25:05;95280.31;;;24.91;100.00
13314;BME280;6725;48.112;11.604;2023-05-07T11:27:31;95283.00;;;25.22;100.00
13314;BME280;6725;48.112;11.604;2023-05-07T11:29:56;95273.25;;;25.49;100.00
13314;BME280;6725;48.112;11.604;2023-05-07T11:32:29;95278.00;;;26.01;95.97
13314;BME280;6725;48.112;11.604;2023-05-07T11:34:55;95274.22;;;25.40;97.79
13314;BME280;6725;48.112;11.604;2023-05-07T11:37:22;95278.41;;;25.19;100.00
13314;BME280;6725;48.112;11.604;2023-05-07T11:39:47;95273.03;;;25.63;100.00
13314;BME280;6725;48.112;11.604;2023-05-07T11:42:30;95275.78;;;24.99;100.00
13314;BME280;6725;48.112;11.604;2023-05-07T11:44:56;95264.13;;;24.33;100.00
13314;BME280;6725;48.112;11.604;2023-05-07T11:47:21;95275.06;;;25.09;100.00
13314;BME280;6725;48.112;11.604;2023-05-07T11:49:48;95272.34;;;24.11;100.00
13314;BME280;6725;48.112;11.604;2023-05-07T11:52:14;95269.47;;;24.62;100.00
13314;BME280;6725;48.112;11.604;2023-05-07T11:54:40;95274.41;;;23.90;100.00
13314;BME280;6725;48.112;11.604;2023-05-07T11:57:05;95281.78;;;24.19;100.00
13314;BME280;6725;48.112;11.604;2023-05-07T11:59:41;95269.09;;;23.92;100.00
13314;BME280;6725;48.112;11.604;2023-05-07T12:02:09;95270.06;;;23.64;100.00
13314;BME280;6725;48.112;11.604;2023-05-07T12:04:35;95271.94;;;23.98;100.00
13314;BME280;6725;48.112;11.604;2023-05-07T12:07:00;95266.13;;;23.76;100.00
13314;BME280;6725;48.112;11.604;2023-05-07T12:09:26;95272.91;;;24.20;100.00
13314;BME280;6725;48.112;11.604;2023-05-07T12:11:52;95266.84;;;24.22;100.00
13314;BME280;6725;48.112;11.604;2023-05-07T12:14:18;95258.47;;;24.22;100.00
13314;BME280;6725;48.112;11.604;2023-05-07T12:16:44;95267.72;;;24.08;100.00
13314;BME280;6725;48.112;11.604;2023-05-07T12:19:10;95256.81;;;23.84;100.00
13314;BME280;6725;48.112;11.604;2023-05-07T12:21:40;95251.97;;;24.36;100.00
13314;BME280;6725;48.112;11.604;2023-05-07T12:24:05;95253.13;;;24.24;100.00
13314;BME280;6725;48.112;11.604;2023-05-07T12:26:31;95248.13;;;24.33;100.00
13314;BME280;6725;48.112;11.604;2023-05-07T12:28:59;95248.38;;;24.30;100.00
13314;BME280;6725;48.112;11.604;2023-05-07T12:31:25;95250.59;;;24.20;100.00
13314;BME280;6725;48.112;11.604;2023-05-07T12:33:51;95244.91;;;24.09;100.00
13314;BME280;6725;48.112;11.604;2023-05-07T12:36:16;95242.59;;;23.82;100.00
13314;BME280;6725;48.112;11.604;2023-05-07T12:38:42;95233.69;;;24.66;100.00
13314;BME280;6725;48.112;11.604;2023-05-07T12:41:09;95236.69;;;24.62;100.00
13314;BME280;6725;48.112;11.604;2023-05-07T12:43:35;95240.06;;;24.10;100.00
13314;BME280;6725;48.112;11.604;2023-05-07T12:46:05;95234.94;;;24.34;100.00
13314;BME280;6725;48.112;11.604;2023-05-07T12:48:31;95229.00;;;24.21;100.00
13314;BME280;6725;48.112;11.604;2023-05-07T12:50:58;95227.69;;;23.40;100.00
13314;BME280;6725;48.112;11.604;2023-05-07T12:53:25;95230.50;;;23.40;100.00
13314;BME280;6725;48.112;11.604;2023-05-07T12:55:53;95226.75;;;23.94;100.00
13314;BME280;6725;48.112;11.604;2023-05-07T12:58:26;95216.00;;;23.87;100.00
13314;BME280;6725;48.112;11.604;2023-05-07T13:00:53;95223.78;;;24.03;100.00
13314;BME280;6725;48.112;11.604;2023-05-07T13:03:29;95221.16;;;24.25;100.00
13314;BME280;6725;48.112;11.604;2023-05-07T13:05:59;95238.13;;;23.90;100.00
13314;BME280;6725;48.112;11.604;2023-05-07T13:10:56;95221.72;;;23.72;100.00
13314;BME280;6725;48.112;11.604;2023-05-07T13:13:21;95250.78;;;23.66;100.00
13314;BME280;6725;48.112;11.604;2023-05-07T13:15:47;95235.66;;;23.72;97.04
13314;BME280;6725;48.112;11.604;2023-05-07T13:18:13;95233.84;;;23.69;96.31